x

Naubinway, Mi (nabm4) Weather Station

4:40am - Mon 25th Jul 2016 All times are CDT. -5 hours from GMT.

  • Wind
    1mph, 5mph gusts
  • Air Temp 65°f
  • Sea Pressure 1009.5mb
  • Naubinway, Mi
  • Naubinway, Mi

More Historic Weather Station data

Upgrade to MSW Pro to gain access to the past 30 days of data for over 8000 Wavebouys and Weather Stations around the globe.

Join Pro

Comparision Forecast

View Surf forecast
   
Mon 07/25 4:40am 1 5 mph 1009.5mb 65f
4:30am 3 7 mph 1009.5mb 65f
4:20am 3 7 mph 1009.1mb 65f
4:10am 3 7 mph 1009.1mb 65f
4:01am 5 8 mph 1009.1mb 65f
4:00am 5 7 mph 1009.1mb 65f
3:40am 3 8 mph 1009.1mb 65f
3:30am 5 6 mph 1009.1mb 65f
3:20am 1 3 mph 1009.1mb 66f
3:10am  -  3 mph 1009.1mb 66f
3:01am  -  9 mph 1009.1mb 67f
3:00am  -  5 mph 1009.1mb 67f
2:40am 3 6 mph 1009.1mb 67f
2:30am 5 7 mph 1009.1mb 68f
2:20am 5 9 mph 1009.1mb 68f
2:10am 6 8 mph 1009.1mb 68f
2:00am 5 8 mph 1009.1mb 68f
1:40am 6 8 mph 1008.8mb 68f
1:30am 5 6 mph 1009.1mb 68f
1:20am 2 5 mph 1008.8mb 68f
1:10am  -  3 mph 1008.5mb 68f
1:00am  -  5 mph 1008.5mb 68f
12:40am  -  mph 1008.5mb 68f
12:30am  -  mph 1008.5mb 69f
12:20am  -  mph 1008.5mb 68f
12:10am  -  mph 1008.5mb 70f
12:00am  -  mph 1008.5mb 69f
Sun 07/24 11:40pm  -  mph 1008.5mb 69f
11:30pm  -  mph 1008.5mb 69f
11:20pm  -  mph 1008.5mb 69f
11:10pm  -  mph 1008.8mb 70f
11:00pm  -  mph 1008.5mb 70f
10:41pm  -  5 mph 1008.8mb 69f
10:40pm  -  mph 1008.8mb 69f
10:30pm  -  mph 1008.8mb 68f
10:20pm  -  mph 1008.8mb 69f
10:10pm  -  mph 1008.5mb 69f
10:00pm  -  mph 1008.5mb 70f
9:41pm  -  7 mph 1008.8mb 69f
9:40pm  -  3 mph 1008.8mb 69f
9:30pm  -  mph 1008.8mb 71f
9:20pm  -  6 mph 1008.5mb 71f
9:10pm 5 6 mph 1008.5mb 70f
9:00pm 2 6 mph 1008.5mb 70f
8:40pm 1 7 mph 1008.1mb 70f
8:30pm 3 7 mph 1008.1mb 70f
8:20pm 2 8 mph 1008.1mb 70f
8:10pm  -  5 mph 1007.8mb 70f
8:00pm 2 3 mph 1007.8mb 69f
7:40pm 1 5 mph 1007.8mb 69f
7:30pm  -  5 mph 1007.8mb 69f
7:20pm 2 6 mph 1007.8mb 69f
7:10pm 2 6 mph 1007.5mb 69f
7:00pm 1 7 mph 1007.5mb 69f
6:40pm 6 11 mph 1007.5mb 69f
6:30pm 7 10 mph 1007.8mb 69f
6:20pm 7 13 mph 1007.8mb 69f
6:10pm 5 10 mph 1007.8mb 69f
6:00pm 8 13 mph 1007.8mb 69f
5:40pm 7 13 mph 1007.8mb 69f
5:30pm 9 15 mph 1007.8mb 70f
5:23pm 9 15 mph 1007.8mb 70f
5:20pm 9 14 mph 1007.8mb 70f
5:10pm 9 13 mph 1007.8mb 70f
5:00pm 8 13 mph 1007.8mb 69f
4:40pm 9 13 mph 1007.8mb 69f
4:30pm 8 14 mph 1008.1mb 69f
4:22pm 9 15 mph 1008.1mb 69f
4:20pm 8 15 mph 1008.1mb 69f
4:10pm 9 14 mph 1008.1mb 69f
4:00pm 10 15 mph 1008.1mb 69f
3:40pm 9 11 mph 1008.1mb 69f
3:30pm 7 11 mph 1008.1mb 69f
3:22pm 7 17 mph 1008.1mb 69f
3:20pm 6 11 mph 1008.1mb 69f
3:10pm 11 16 mph 1008.1mb 69f
3:00pm 11 14 mph 1008.1mb 69f
2:40pm 14 17 mph 1008.5mb 70f
2:30pm 14 17 mph 1008.5mb 70f
2:21pm 10 15 mph 1008.5mb 69f
2:20pm 10 15 mph 1008.5mb 69f
2:10pm 8 10 mph 1008.8mb 69f
2:00pm 8 11 mph 1008.8mb 69f
1:40pm 11 15 mph 1008.8mb 69f
1:30pm 11 15 mph 1008.8mb 69f
1:21pm 13 15 mph 1008.8mb 69f
1:20pm 13 15 mph 1008.8mb 69f
1:10pm 11 14 mph 1009.1mb 69f
1:00pm 11 14 mph 1009.1mb 69f
12:40pm 10 13 mph 1009.1mb 69f
12:30pm 7 8 mph 1009.1mb 70f
12:21pm 5 14 mph 1009.5mb 70f
12:20pm 5 9 mph 1009.5mb 70f
12:10pm 7 10 mph 1009.5mb 70f
12:00pm 9 11 mph 1009.5mb 70f
11:40am 10 13 mph 1009.5mb 70f
11:30am 9
mph
1009.5mb 70f
11:20am 8 17 mph 1009.5mb 69f
11:10am 8
mph
1009.5mb 69f
11:00am 8 10 mph 1009.1mb 69f
10:40am 11 16 mph 1008.8mb 69f
10:30am 14 17 mph 1008.8mb 69f
10:20am 15 29 mph 1008.8mb 69f
10:10am 15 17 mph 1008.5mb 68f
10:00am 16 21 mph 1008.8mb 68f
9:40am 18 28 mph 1008.5mb 67f
9:30am 24 29 mph 1007.5mb 67f
9:20am 23 28 mph 1008.8mb 67f
9:19am 23 28 mph 1008.8mb 67f
9:10am 22 25 mph 1009.5mb 67f
9:00am 21 25 mph 1009.8mb 67f
8:40am 18 22 mph 1009.8mb 68f
8:30am 16 21 mph 1009.8mb 68f
8:20am 14 17 mph 1010.2mb 69f
8:19am 15 17 mph 1010.2mb 68f
8:10am 13 15 mph 1010.5mb 68f
8:00am 13 15 mph 1010.5mb 68f
7:40am 14 16 mph 1010.5mb 68f
7:30am 13 16 mph 1010.5mb 68f
7:20am 15 16 mph 1010.5mb 68f
7:19am 14 17 mph 1010.5mb 68f
7:10am 14 16 mph 1010.8mb 68f
7:00am 15 17 mph 1010.5mb 68f
6:40am 14 15 mph 1010.5mb 68f
6:30am 11 13 mph 1010.5mb 68f
6:20am 9 14 mph 1010.5mb 68f
6:18am 10 15 mph 1010.5mb 68f
6:10am 11 15 mph 1010.5mb 68f
6:00am 11 14 mph 1010.8mb 68f
5:40am 13 14 mph 1010.8mb 68f
5:30am 9 11 mph 1011.2mb 67f
5:20am 9 10 mph 1011.2mb 67f
5:18am 9 10 mph 1010.8mb 68f
5:10am 7 8 mph 1011.2mb 68f
5:00am 5 6 mph 1011.5mb 68f
4:50am  -  6 mph 1011.5mb 68f
4:40am 5 6 mph 1011.5mb 68f
4:30am 6 7 mph 1011.5mb 69f
4:20am 5 6 mph 1011.2mb 69f
4:17am  -  10 mph 1011.5mb 69f
4:10am 2 7 mph 1011.5mb 69f
4:00am 6 9 mph 1011.9mb 70f
3:50am 7 9 mph 1011.9mb 70f
3:40am 6 8 mph 1012.2mb 71f
3:30am 7 10 mph 1011.9mb 71f
3:20am 9
mph
1011.9mb 72f
3:17am 7 15 mph 1011.9mb 72f
3:10am 2 9 mph 1011.9mb 72f
3:00am 9 14 mph 1011.5mb 72f
2:50am 11 15 mph 1011.2mb 72f
2:40am 11 14 mph 1011.2mb 72f
2:30am 11 13 mph 1011.5mb 71f
2:20am 10 11 mph 1011.5mb 71f
2:17am 9 13 mph 1011.5mb 71f
2:10am 9 13 mph 1011.9mb 71f
2:00am 9 11 mph 1011.5mb 71f
1:50am 10 13 mph 1011.9mb 72f
1:40am 11 13 mph 1011.9mb 72f
1:30am 10 13 mph 1011.9mb 72f
1:20am 10 11 mph 1011.9mb 72f
1:16am 9 13 mph 1012.2mb 73f
1:10am 11 13 mph 1012.2mb 73f
1:00am 10 13 mph 1011.9mb 73f
12:50am 10 11 mph 1012.2mb 73f
12:40am 8 10 mph 1012.2mb 72f
12:30am 7 8 mph 1012.2mb 71f
12:20am 6 7 mph 1012.5mb 71f
12:16am 6 8 mph 1012.5mb 71f
12:10am 7
mph
1012.5mb 71f
12:00am 6 7 mph 1012.2mb 71f
Sat 07/23 11:50pm 7 8 mph 1012.5mb 71f
11:40pm 6 7 mph 1012.5mb 71f
11:30pm 5 6 mph 1012.5mb 71f
11:20pm 5 6 mph 1012.5mb 70f
11:15pm  -  6 mph 1012.9mb 70f
11:10pm  -  5 mph 1012.9mb 70f
11:00pm  -  mph 1012.9mb 70f
10:50pm  -  2 mph 1012.9mb 70f
10:40pm 2 6 mph 1012.9mb 70f
10:30pm  -  5 mph 1012.9mb 70f
10:20pm 5 6 mph 1012.9mb 70f
10:15pm 6
mph
1012.9mb 70f
10:10pm 6
mph
1012.9mb 71f
10:00pm 5
mph
1012.9mb 70f
9:50pm  -  mph 1013.2mb 71f
9:40pm  -  mph 1013.2mb 71f
9:30pm  -  mph 1013.2mb 71f
9:20pm  -  mph 1013.2mb 71f
9:15pm  -  5 mph 1013.2mb 71f
9:10pm  -  2 mph 1013.2mb 71f
9:00pm  -  mph 1012.9mb 71f
8:50pm 2 5 mph 1012.9mb 71f
8:40pm  -  mph 1013.2mb 71f
8:30pm  -  mph 1012.9mb 71f
8:20pm  -  mph 1013.2mb 71f
8:14pm  -  1 mph 1013.2mb 72f
8:10pm  -  mph 1013.2mb 72f
8:00pm  -  mph 1013.2mb 72f
7:50pm  -  mph 1013.2mb 74f
7:40pm  -  mph 1013.2mb 74f
7:30pm  -  mph 1013.2mb 74f
7:20pm  -  1 mph 1013.5mb 77f
7:14pm  -  5 mph 1013.2mb 78f
7:10pm  -  mph 1013.2mb 78f
7:00pm  -  mph 1013.5mb 77f
6:50pm  -  mph 1013.5mb 78f
6:40pm  -  5 mph 1013.5mb 77f
6:30pm 3 5 mph 1013.5mb 76f
6:20pm 1 6 mph 1013.5mb 76f
6:13pm 3 8 mph 1013.9mb 76f
6:10pm 1 6 mph 1013.9mb 76f
6:00pm 2 6 mph 1013.9mb 75f
5:50pm 3 7 mph 1013.9mb 75f
5:40pm 3 8 mph 1013.9mb 76f
5:30pm  -  3 mph 1013.9mb 77f
5:20pm  -  3 mph 1013.9mb 77f
5:13pm 2 6 mph 1013.9mb 77f
5:10pm  -  5 mph 1013.9mb 77f
5:00pm 2 5 mph 1013.5mb 77f
4:50pm  -  5 mph 1013.5mb 77f
4:40pm 2 5 mph 1013.9mb 76f
4:30pm  -  5 mph 1013.9mb 77f
4:20pm 1 6 mph 1013.9mb 77f
4:13pm 2 7 mph 1013.9mb 76f
4:10pm 3 7 mph 1013.9mb 76f
4:00pm 5 6 mph 1014.2mb 76f
3:50pm 5 7 mph 1014.2mb 76f
3:40pm 5 7 mph 1014.6mb 76f
3:30pm  -  1 mph 1014.6mb 78f
3:20pm  -  mph 1014.6mb 78f
3:12pm  -  10 mph 1014.6mb 77f
3:10pm  -  6 mph 1014.6mb 77f
3:00pm 5 8 mph 1014.6mb 77f
2:50pm 7 8 mph 1014.9mb 77f
2:40pm 6 9 mph 1014.9mb 76f
2:30pm 5 10 mph 1014.9mb 76f
2:20pm 6 10 mph 1015.2mb 76f
2:12pm 8 10 mph 1015.2mb 75f
2:10pm 7 10 mph 1015.2mb 75f
2:00pm 7 10 mph 1015.2mb 75f
1:40pm 7 10 mph 1015.6mb 75f
1:30pm 3 7 mph 1015.6mb 76f
1:20pm 5 8 mph 1015.6mb 75f
1:11pm 6 8 mph 1015.2mb 74f
1:10pm 6 8 mph 1015.2mb 74f
1:00pm 5 8 mph 1015.2mb 74f
12:50pm 6 7 mph 1015.2mb 74f
12:40pm 5 6 mph 1014.9mb 74f
12:30pm 5 7 mph 1014.9mb 74f
12:20pm 5 7 mph 1014.9mb 74f
12:11pm 3 6 mph 1014.6mb 74f
12:10pm 3 6 mph 1014.6mb 74f
12:00pm 2 5 mph 1014.9mb 74f
11:50am  -  5 mph 1014.6mb 74f
11:40am 2 5 mph 1014.6mb 73f
11:30am 5 6 mph 1014.6mb 72f
11:20am 2 5 mph 1014.9mb 72f
11:11am 3 8 mph 1014.9mb 72f
11:10am 3 5 mph 1014.9mb 72f
11:00am 2 5 mph 1014.9mb 72f
10:50am 5 6 mph 1015.2mb 70f
10:40am 5 7 mph 1015.6mb 71f
10:30am 7 8 mph 1015.6mb 71f
10:20am 5 6 mph 1015.2mb 71f
10:10am 5 6 mph 1015.2mb 70f
10:00am 5
mph
1015.2mb 71f
9:50am 2 6 mph 1015.2mb 70f
9:40am 3 5 mph 1014.9mb 70f
9:30am 5 7 mph 1014.9mb 70f
9:20am 7
mph
1014.9mb 69f
9:10am 5 6 mph 1014.9mb 69f
9:00am 5 6 mph 1014.9mb 69f
8:40am 3 5 mph 1015.2mb 70f
8:30am  -  mph 1015.2mb 74f
8:20am  -  mph 1014.9mb 73f
8:10am  -  mph 1014.9mb 76f
8:09am  -  11 mph 1014.9mb 77f
8:00am  -  mph 1014.9mb 75f
7:50am  -  7 mph 1014.9mb 73f
7:40am 5 9 mph 1014.9mb 72f
7:30am 7 11 mph 1014.9mb 71f
7:20am 8 11 mph 1014.6mb 70f
7:10am 8 11 mph 1014.6mb 70f
7:09am 8 16 mph 1014.6mb 70f
7:00am 9 14 mph 1014.2mb 70f
6:50am 9 16 mph 1014.2mb 70f
6:40am 10 13 mph 1014.2mb 70f
6:30am 7 10 mph 1014.2mb 70f
6:20am 3 6 mph 1014.2mb 70f
6:10am  -  6 mph 1014.2mb 70f
6:08am  -  7 mph 1014.2mb 70f
6:00am 2 5 mph 1014.2mb 69f
5:50am  -  3 mph 1013.9mb 69f
5:40am  -  5 mph 1013.9mb 68f
5:30am 2 7 mph 1013.5mb 68f
5:20am 5 7 mph 1013.5mb 69f
5:10am 5 7 mph 1013.5mb 69f
5:08am 5 7 mph 1013.5mb 68f
5:00am 2 7 mph 1013.5mb 67f
4:50am  -  3 mph 1013.2mb 67f
4:40am  -  mph 1013.2mb 68f
4:30am  -  3 mph 1013.2mb 68f
4:20am 3 7 mph 1013.5mb 69f
4:10am 6 9 mph 1013.5mb 69f
4:08am 7 13 mph 1013.5mb 69f
4:00am 7 9 mph 1013.2mb 69f
3:50am 7 11 mph 1013.2mb 69f
3:40am 9 13 mph 1013.5mb 70f
3:30am 9 11 mph 1013.2mb 70f
3:20am 9 13 mph 1013.2mb 70f
3:10am 9 11 mph 1013.2mb 70f
3:07am 9 11 mph 1013.2mb 70f
3:00am 9 11 mph 1013.2mb 69f
2:50am 7 10 mph 1013.5mb 68f
2:40am 3 6 mph 1013.5mb 64f
2:30am 1 6 mph 1013.5mb 65f
2:20am 1 5 mph 1013.5mb 63f
2:10am  -  mph 1013.5mb 63f
2:07am  -  mph 1013.2mb 63f
2:00am  -  mph 1013.2mb 63f
1:50am  -  mph 1013.2mb 63f
1:40am  -  mph 1013.2mb 64f
1:30am  -  mph 1012.9mb 64f
1:20am  -  mph 1013.2mb 63f
1:10am  -  mph 1013.2mb 64f
1:06am  -  6 mph 1013.2mb 64f
1:00am  -  mph 1013.2mb 64f
12:50am  -  mph 1013.2mb 64f
12:40am  -  mph 1012.9mb 65f
12:30am  -  3 mph 1012.9mb 66f
12:20am 2 6 mph 1012.9mb 67f
12:10am  -  mph 1012.9mb 66f
12:06am  -  8 mph 1012.9mb 67f
12:00am  -  5 mph 1012.9mb 67f
Fri 07/22 11:50pm  -  2 mph 1012.5mb 67f
11:40pm 3 8 mph 1012.5mb 68f
11:30pm 3 7 mph 1012.5mb 68f
11:20pm  -  3 mph 1012.5mb 67f
11:10pm  -  5 mph 1012.5mb 67f
11:06pm  -  9 mph 1012.5mb 67f
11:00pm  -  1 mph 1012.2mb 67f
10:50pm  -  8 mph 1012.2mb 68f
10:40pm 6 9 mph 1012.2mb 68f
10:30pm 7 8 mph 1012.5mb 68f
10:20pm 1 5 mph 1012.5mb 68f
10:10pm 3 5 mph 1012.5mb 68f
10:05pm  -  8 mph 1012.5mb 68f
10:00pm  -  6 mph 1012.5mb 69f
9:50pm 5 7 mph 1012.5mb 69f
9:40pm 5 7 mph 1012.5mb 69f
9:30pm  -  7 mph 1012.5mb 69f
9:20pm 5 8 mph 1012.5mb 69f
9:10pm 2 6 mph 1012.5mb 70f
9:05pm 3 14 mph 1012.5mb 70f
9:00pm 2 11 mph 1012.5mb 70f
8:50pm 6 14 mph 1012.5mb 70f
8:40pm 7 11 mph 1012.5mb 69f
8:30pm 7 13 mph 1012.5mb 69f
8:20pm 7 13 mph 1012.2mb 70f
8:10pm 11 14 mph 1012.2mb 70f
8:04pm 3 10 mph 1012.5mb 71f
8:00pm 6 10 mph 1012.2mb 71f
7:50pm 7 10 mph 1012.2mb 71f
7:40pm 6 10 mph 1012.5mb 71f
7:30pm 7 11 mph 1012.2mb 72f
7:20pm 9 10 mph 1012.2mb 74f
7:10pm 5 9 mph 1012.2mb 80f
7:00pm 5 9 mph 1012.2mb 85f
6:50pm 7 11 mph 1012.2mb 85f
6:40pm 6 10 mph 1012.2mb 82f
6:30pm 7 11 mph 1012.2mb 78f
6:20pm 8 13 mph 1011.9mb -
6:10pm 11 16 mph 1012.2mb -
6:04pm 8 17 mph 1012.2mb -
6:00pm 9 17 mph 1012.2mb -
5:50pm 8 17 mph 1011.9mb -
5:40pm 13 17 mph 1011.9mb -
5:30pm 16 20 mph 1011.9mb -
5:20pm 9 14 mph 1012.2mb -
5:10pm 3 14 mph 1011.9mb 87f
5:00pm 9 16 mph 1011.9mb 87f
4:50pm 10 16 mph 1011.9mb 87f
4:40pm 9 16 mph 1011.9mb 87f
4:30pm 11 17 mph 1011.9mb 86f
4:20pm 13 18 mph 1011.9mb 87f
4:10pm 13 22 mph 1011.9mb 87f
4:03pm 10 22 mph 1011.9mb 87f
4:00pm 15 22 mph 1011.9mb 87f
3:50pm 13 22 mph 1012.2mb 87f
3:40pm 14 20 mph 1012.2mb 88f
3:30pm 9 15 mph 1012.2mb 88f
3:20pm 7 15 mph 1012.2mb 89f
3:10pm 8 14 mph 1012.2mb 88f
3:02pm 9 18 mph 1012.2mb 89f
3:00pm 9 14 mph 1012.2mb 89f
2:50pm 8 18 mph 1012.2mb 87f
2:40pm 9 13 mph 1012.2mb 88f
2:30pm 9 16 mph 1012.5mb 87f
2:20pm 7 14 mph 1012.5mb 88f
2:10pm 13 18 mph 1012.9mb 87f
2:02pm 10 23 mph 1012.9mb 87f
2:00pm 11 18 mph 1012.5mb 87f
1:50pm 11 17 mph 1012.9mb 87f
1:40pm 7 18 mph 1012.9mb 87f
1:30pm 11 18 mph 1012.9mb 87f
1:20pm 8 20 mph 1012.9mb 87f
1:10pm 14 23 mph 1012.9mb 86f
1:02pm 11 22 mph 1012.9mb 86f
1:00pm 8 18 mph 1012.9mb 86f
12:50pm 8 16 mph 1012.9mb 85f
12:40pm 8 15 mph 1012.9mb 86f
12:30pm 7 14 mph 1012.9mb 85f
12:20pm 6 15 mph 1012.9mb 85f
12:10pm 7 22 mph 1012.9mb 84f
12:01pm 6 20 mph 1012.9mb 84f
12:00pm 6 15 mph 1012.9mb 84f
11:50am 10 15 mph 1012.9mb 84f
11:40am 11 20 mph 1012.9mb 83f
11:30am 13 18 mph 1012.9mb 83f
11:20am 9 13 mph 1012.9mb 83f
11:10am 7 13 mph 1012.9mb 83f
11:01am 10 17 mph 1012.9mb 82f
11:00am 10 16 mph 1012.9mb 82f
10:50am 6 17 mph 1012.9mb 82f
10:40am 9 14 mph 1012.5mb 82f
10:30am 8 13 mph 1012.2mb 81f
10:20am 10 14 mph 1012.2mb 81f
10:10am 8 16 mph 1012.2mb 80f
10:00am 9 15 mph 1011.9mb 79f
9:50am 10 13 mph 1011.9mb 78f
9:40am 9 13 mph 1012.9mb 78f
9:30am 9 11 mph 1012.2mb 78f
9:20am 8 13 mph 1012.2mb 78f
9:10am 10 14 mph 1012.2mb 78f
9:00am 8 11 mph 1012.5mb 77f
8:50am 8 11 mph 1012.2mb 76f
8:40am 3 8 mph 1012.2mb 76f
8:30am 3 9 mph 1012.2mb 75f
8:20am  -  7 mph 1012.2mb 74f
8:10am 3 7 mph 1012.2mb 72f
8:00am 3 11 mph 1012.2mb 72f
7:50am 5 8 mph 1012.2mb 71f
7:40am 5 7 mph 1012.2mb 70f
7:30am 5 7 mph 1012.5mb 69f
7:20am 3 8 mph 1012.2mb 70f
7:10am 3 7 mph 1012.2mb 70f
7:00am 2 5 mph 1012.2mb 69f
6:50am 2 5 mph 1012.2mb 68f
6:40am 2 3 mph 1011.9mb 68f
6:30am  -  5 mph 1011.9mb 67f
6:20am 3 7 mph 1011.9mb 67f
6:10am 5 8 mph 1011.9mb 66f
6:00am 6 9 mph 1011.9mb 66f
5:50am 7 10 mph 1011.5mb 66f
5:40am 8 10 mph 1011.5mb 66f
5:30am 7 11 mph 1011.5mb 66f
5:20am 8 11 mph 1011.5mb 66f
5:10am 8 10 mph 1011.2mb 66f
5:00am 7 11 mph 1011.2mb 66f
4:50am 8 11 mph 1010.8mb 66f
4:40am 8 10 mph 1010.8mb 66f
4:30am 8 10 mph 1010.8mb 67f
4:20am 8 9 mph 1010.8mb 67f
4:10am 6 8 mph 1010.8mb 66f
4:00am 6 8 mph 1010.8mb 67f
3:50am 5 7 mph 1010.8mb 66f
3:40am  -  5 mph 1010.8mb 66f
3:30am 2 5 mph 1010.8mb 66f
3:20am  -  5 mph 1010.8mb 66f
3:12am  -  6 mph 1010.8mb 66f
3:10am  -  5 mph 1010.8mb 66f
3:00am 2 6 mph 1010.5mb 66f
2:50am  -  5 mph 1010.5mb 66f
2:40am  -  2 mph 1010.5mb 66f
2:30am  -  3 mph 1010.5mb 66f
2:20am 1 5 mph 1010.5mb 66f
2:11am  -  7 mph 1010.5mb 64f
2:10am  -  mph 1010.2mb 64f
2:00am  -  2 mph 1010.2mb 66f
1:50am  -  1 mph 1010.5mb 67f
1:40am  -  2 mph 1010.5mb 67f
1:30am  -  6 mph 1010.5mb 68f
1:20am 5 8 mph 1010.5mb 68f
1:11am 6 8 mph 1010.5mb 68f
1:10am 6 8 mph 1010.5mb 68f
1:00am 5 6 mph 1010.5mb 67f
12:50am 2 5 mph 1010.2mb 66f
12:40am  -  mph 1010.5mb 67f
12:30am  -  mph 1010.2mb 67f
12:20am  -  mph 1010.5mb 66f
12:11am  -  8 mph 1010.5mb 66f
12:10am  -  mph 1010.5mb 66f
12:00am  -  mph 1010.8mb 67f
Thu 07/21 11:50pm  -  5 mph 1010.8mb 67f
11:40pm 3 6 mph 1010.8mb 68f
11:30pm 5 7 mph 1010.5mb 68f
11:20pm 6 8 mph 1010.5mb 68f
11:10pm 7 9 mph 1010.8mb 68f
11:00pm 2 8 mph 1010.5mb 68f
10:50pm 6 8 mph 1010.5mb 68f
10:40pm 5 8 mph 1010.5mb 69f
10:30pm 6 9 mph 1010.5mb 69f
10:20pm 6 9 mph 1010.5mb 69f
10:10pm 5 9 mph 1010.2mb 70f
10:00pm 7 9 mph 1010.2mb 70f
9:50pm 5 9 mph 1010.2mb 70f
9:40pm 3 6 mph 1009.8mb 69f
9:30pm  -  7 mph 1010.2mb 69f
9:20pm 5 7 mph 1009.5mb 69f
9:10pm 3 10 mph 1009.5mb 69f
9:09pm 3 14 mph 1009.5mb 69f
9:00pm 6 13 mph 1009.1mb 69f
8:50pm 8 10 mph 1009.1mb 69f
8:40pm 6 9 mph 1009.5mb 69f
8:30pm 3 14 mph 1009.5mb 69f
8:20pm 9 14 mph 1009.5mb 69f
8:10pm 9 14 mph 1009.1mb 69f
8:09pm 8 16 mph 1009.5mb 69f
8:00pm 10 15 mph 1009.5mb 69f
7:50pm 8 14 mph 1009.8mb 69f
7:40pm 7 11 mph 1009.8mb 69f
7:30pm 6 10 mph 1009.8mb 69f
7:20pm 8 15 mph 1009.8mb 69f
7:10pm 11 16 mph 1009.8mb 69f
7:08pm 10 20 mph 1009.8mb 69f
7:00pm 10 15 mph 1009.5mb 69f
6:50pm 7 14 mph 1009.5mb 69f
6:40pm 8 16 mph 1009.5mb 69f
6:30pm 9 20 mph 1009.5mb 69f
6:20pm 11 18 mph 1009.5mb 69f
6:10pm 10 16 mph 1009.5mb 69f
6:08pm 1 23 mph 1009.5mb 69f
6:00pm 13 23 mph 1009.5mb 69f
5:40pm 17 21 mph 1009.5mb 69f
5:30pm 16 21 mph 1009.1mb 69f
5:20pm 17 21 mph 1009.1mb 69f
5:10pm 14 17 mph 1009.1mb 70f
5:08pm 14 23 mph 1008.8mb 69f
5:00pm 15 17 mph 1008.8mb 70f
4:50pm 10 17 mph 1008.8mb 70f
4:40pm 14 18 mph 1008.8mb 69f
4:30pm 16 20 mph 1009.1mb 69f
4:20pm 18 23 mph 1009.1mb 69f
4:10pm 20 23 mph 1009.1mb 69f
4:07pm 20 23 mph 1009.5mb 69f
4:00pm 18 23 mph 1009.5mb 69f
3:50pm 18 22 mph 1009.1mb 69f
3:40pm 16 21 mph 1009.5mb 69f
3:30pm 16 21 mph 1009.8mb 69f
3:20pm 16 21 mph 1009.8mb 69f
3:10pm 16 20 mph 1009.8mb 69f
3:07pm 17 24 mph 1009.8mb 69f
3:00pm 17 20 mph 1010.2mb 68f
2:50pm 17 21 mph 1010.2mb 68f
2:40pm 18 24 mph 1010.2mb 68f
2:30pm 21 23 mph 1010.2mb 69f
2:20pm 17 20 mph 1010.2mb 70f
2:10pm 15 20 mph 1010.2mb 71f
2:06pm 16 20 mph 1010.2mb 71f
2:00pm 14 18 mph 1010.2mb 71f
1:50pm 10 14 mph 1010.2mb 73f
1:40pm 9 14 mph 1010.2mb 73f
1:30pm 8 16 mph 1010.2mb 71f
1:20pm 11 16 mph 1010.2mb 71f
1:10pm 11 16 mph 1010.2mb 71f
1:06pm 10 21 mph 1010.2mb 70f
1:00pm 10 15 mph 1010.5mb 70f
12:50pm 8 15 mph 1010.2mb 71f
12:40pm 8 17 mph 1010.5mb 71f
12:30pm 14 21 mph 1010.5mb 71f
12:20pm 13 17 mph 1010.5mb 70f
12:10pm 7 13 mph 1010.8mb 70f
12:06pm 6 18 mph 1010.8mb 70f
12:00pm 8 13 mph 1010.8mb 70f
11:50am 6 11 mph 1010.8mb 70f
11:40am 10 15 mph 1010.8mb 69f
11:30am 11 17 mph 1010.8mb 69f
11:20am 9 18 mph 1011.2mb 69f
11:10am 13 18 mph 1011.5mb 69f
11:05am 9 21 mph 1011.9mb 69f
11:00am 14 21 mph 1011.9mb 68f
10:50am 8 18 mph 1011.2mb 68f